createdAt,value
2022-11-04T00:01:19.373Z,18.92
2022-11-04T00:03:46.485Z,12.85
2022-11-04T00:06:13.698Z,17.90
2022-11-04T00:08:43.826Z,22.55
2022-11-04T00:11:29.825Z,26.23
2022-11-04T00:13:57.979Z,16.48
2022-11-04T00:16:43.321Z,16.05
2022-11-04T00:19:10.232Z,20.90
2022-11-04T00:21:55.564Z,28.50
2022-11-04T00:24:41.299Z,22.40
2022-11-04T00:27:32.801Z,17.35
2022-11-04T00:30:00.367Z,18.67
2022-11-04T00:32:46.721Z,16.73
2022-11-04T00:35:14.214Z,18.42
2022-11-04T00:37:42.998Z,18.83
2022-11-04T00:40:12.576Z,18.38
2022-11-04T00:42:40.554Z,17.50
2022-11-04T00:45:07.967Z,13.68
2022-11-04T00:47:35.046Z,16.45
2022-11-04T00:50:02.212Z,18.83
2022-11-04T00:52:29.438Z,20.50
2022-11-04T00:54:56.655Z,17.63
2022-11-04T00:57:24.024Z,17.65
2022-11-04T00:59:50.881Z,17.73
2022-11-04T01:02:18.074Z,13.07
2022-11-04T01:04:46.687Z,16.98
2022-11-04T01:07:14.065Z,21.20
2022-11-04T01:09:41.235Z,27.30
2022-11-04T01:12:08.468Z,28.95
2022-11-04T01:14:35.973Z,23.45
2022-11-04T01:17:03.145Z,21.45
2022-11-04T01:19:30.255Z,23.95
2022-11-04T01:21:57.337Z,20.70
2022-11-04T01:24:24.759Z,16.40
2022-11-04T01:26:51.681Z,18.63
2022-11-04T01:29:18.747Z,24.23
2022-11-04T01:31:45.873Z,20.80
2022-11-04T01:34:12.980Z,23.42
2022-11-04T01:36:40.052Z,17.70
2022-11-04T01:39:07.325Z,20.35
2022-11-04T01:41:34.553Z,26.58
2022-11-04T01:44:39.810Z,40.90
2022-11-04T01:47:14.189Z,84.40
2022-11-04T01:49:43.504Z,56.42
2022-11-04T01:52:15.362Z,50.17
2022-11-04T01:54:45.153Z,46.90
2022-11-04T01:57:19.004Z,62.78
2022-11-04T01:59:47.099Z,54.63
2022-11-04T02:02:14.063Z,56.58
2022-11-04T02:04:43.066Z,47.83
2022-11-04T02:07:11.369Z,34.58
2022-11-04T02:09:40.639Z,50.95
2022-11-04T02:12:26.274Z,41.15
2022-11-04T02:14:55.059Z,27.77
2022-11-04T02:18:08.637Z,16.75
2022-11-04T02:21:19.523Z,23.05
2022-11-04T02:24:14.413Z,21.57
2022-11-04T02:26:59.936Z,18.83
2022-11-04T02:29:36.558Z,20.08
2022-11-04T02:32:12.549Z,20.60
2022-11-04T02:34:49.082Z,42.53
2022-11-04T02:37:37.864Z,39.47
2022-11-04T02:40:21.097Z,33.92
2022-11-04T02:42:54.107Z,26.40
2022-11-04T02:45:36.104Z,36.63
2022-11-04T02:48:29.741Z,50.97
2022-11-04T02:51:36.993Z,20.00
2022-11-04T02:54:12.990Z,16.58
2022-11-04T02:56:47.330Z,20.33
2022-11-04T02:59:23.330Z,26.10
2022-11-04T03:01:53.520Z,42.63
2022-11-04T03:04:28.488Z,40.60
2022-11-04T03:06:58.759Z,22.70
2022-11-04T03:09:29.990Z,26.67
2022-11-04T03:12:03.347Z,37.45
2022-11-04T03:14:41.600Z,68.57
2022-11-04T03:17:33.320Z,50.83
2022-11-04T03:20:03.254Z,33.90
2022-11-04T03:22:36.332Z,46.83
2022-11-04T03:25:06.662Z,52.47
2022-11-04T03:27:42.815Z,37.90
2022-11-04T03:33:39.932Z,32.47
2022-11-04T03:36:09.049Z,20.88
2022-11-04T03:38:37.485Z,15.38
2022-11-04T03:41:10.904Z,23.23
2022-11-04T03:43:41.662Z,20.58
2022-11-04T03:46:08.895Z,19.92
2022-11-04T03:48:36.656Z,21.38
2022-11-04T03:51:03.885Z,29.05
2022-11-04T03:53:32.060Z,27.77
2022-11-04T03:56:17.347Z,26.88
2022-11-04T03:59:12.035Z,19.00
2022-11-04T04:01:49.821Z,20.58
2022-11-04T04:04:49.284Z,22.27
2022-11-04T04:07:24.425Z,21.05
2022-11-04T04:09:59.197Z,18.17
2022-11-04T04:12:41.700Z,20.10
2022-11-04T04:15:22.090Z,29.40
2022-11-04T04:18:21.516Z,27.35
2022-11-04T04:20:50.642Z,26.25
2022-11-04T04:23:42.204Z,25.70
2022-11-04T04:28:57.750Z,48.55
2022-11-04T04:31:46.189Z,62.38
2022-11-04T04:34:14.364Z,49.10
2022-11-04T04:36:49.319Z,20.77
2022-11-04T04:39:41.490Z,19.25
2022-11-04T04:42:27.826Z,37.00
2022-11-04T04:45:04.779Z,26.30
2022-11-04T04:47:45.774Z,27.58
2022-11-04T04:50:18.265Z,28.92
2022-11-04T04:52:50.940Z,29.20
2022-11-04T04:55:19.097Z,36.03
2022-11-04T04:57:46.082Z,39.95
2022-11-04T05:00:16.746Z,32.58
2022-11-04T05:02:44.088Z,55.38
2022-11-04T05:05:13.496Z,45.67
2022-11-04T05:07:48.267Z,45.13
2022-11-04T05:10:16.929Z,32.75
2022-11-04T05:13:03.463Z,28.15
2022-11-04T05:15:32.649Z,36.22
2022-11-04T05:18:02.244Z,32.60
2022-11-04T05:20:30.440Z,30.55
2022-11-04T05:22:57.507Z,42.88
2022-11-04T05:25:24.714Z,28.05
2022-11-04T05:27:51.538Z,25.98
2022-11-04T05:30:19.031Z,68.38
2022-11-04T05:32:46.186Z,64.85
2022-11-04T05:35:13.676Z,70.28
2022-11-04T05:37:41.066Z,41.28
2022-11-04T05:40:08.469Z,32.83
2022-11-04T05:42:37.141Z,30.23
2022-11-04T05:45:06.222Z,52.85
2022-11-04T05:47:33.518Z,48.95
2022-11-04T05:50:00.615Z,71.28
2022-11-04T05:52:27.948Z,32.05
2022-11-04T05:54:55.171Z,24.10
2022-11-04T05:57:22.476Z,30.73
2022-11-04T05:59:49.543Z,35.65
2022-11-04T06:02:17.028Z,47.53
2022-11-04T06:04:43.962Z,37.03
2022-11-04T06:07:12.293Z,30.80
2022-11-04T06:09:39.261Z,24.67
2022-11-04T06:12:11.090Z,31.80
2022-11-04T06:14:38.488Z,29.88
2022-11-04T06:17:06.002Z,27.30
2022-11-04T06:19:33.144Z,21.35
2022-11-04T06:22:00.725Z,28.80
2022-11-04T06:24:28.869Z,45.85
2022-11-04T06:26:56.361Z,25.70
2022-11-04T06:29:23.631Z,25.02
2022-11-04T06:31:50.690Z,30.30
2022-11-04T06:34:17.921Z,27.38
2022-11-04T06:36:44.977Z,24.70
2022-11-04T06:39:12.916Z,22.23
2022-11-04T06:41:42.826Z,21.05
2022-11-04T06:44:10.336Z,26.05
2022-11-04T06:46:39.462Z,22.40
2022-11-04T06:49:07.781Z,22.38
2022-11-04T06:51:35.009Z,19.70
2022-11-04T06:54:01.995Z,23.98
2022-11-04T06:56:29.094Z,25.98
2022-11-04T06:58:57.193Z,25.67
2022-11-04T07:01:27.212Z,21.45
2022-11-04T07:03:57.054Z,27.23
2022-11-04T07:06:25.348Z,24.90
2022-11-04T07:08:53.462Z,30.23
2022-11-04T07:11:22.657Z,28.20
2022-11-04T07:13:49.937Z,26.33
2022-11-04T07:16:18.208Z,33.20
2022-11-04T07:18:45.337Z,21.40
2022-11-04T07:21:13.126Z,25.05
2022-11-04T07:23:40.459Z,21.67
2022-11-04T07:26:09.114Z,21.25
2022-11-04T07:28:37.384Z,23.30
2022-11-04T07:31:06.348Z,23.10
2022-11-04T07:33:34.279Z,28.48
2022-11-04T07:36:05.997Z,27.00
2022-11-04T07:38:33.369Z,21.88
2022-11-04T07:41:02.584Z,33.47
2022-11-04T07:43:30.998Z,22.40
2022-11-04T07:46:10.817Z,30.88
2022-11-04T07:48:39.886Z,20.08
2022-11-04T07:51:09.505Z,25.67
2022-11-04T07:53:36.731Z,28.88
2022-11-04T07:56:05.952Z,23.50
2022-11-04T07:58:33.009Z,25.23
2022-11-04T08:01:02.050Z,21.98
2022-11-04T08:03:29.190Z,21.88
2022-11-04T08:05:58.418Z,32.00
2022-11-04T08:08:26.457Z,31.85
2022-11-04T08:10:58.926Z,28.75
2022-11-04T08:13:29.457Z,24.42
2022-11-04T08:15:57.825Z,26.92
2022-11-04T08:18:24.942Z,30.73
2022-11-04T08:20:52.624Z,32.63
2022-11-04T08:23:20.407Z,22.42
2022-11-04T08:25:47.469Z,28.02
2022-11-04T08:28:17.810Z,26.75
2022-11-04T08:31:01.579Z,25.40
2022-11-04T08:33:51.697Z,31.83
2022-11-04T08:36:22.026Z,24.67
2022-11-04T08:38:50.012Z,19.67
2022-11-04T08:41:20.034Z,23.52
2022-11-04T08:43:48.284Z,21.80
2022-11-04T08:46:15.479Z,15.90
2022-11-04T08:48:43.460Z,20.80
2022-11-04T08:51:17.866Z,16.85
2022-11-04T08:53:45.263Z,16.35
2022-11-04T08:56:19.062Z,12.35
2022-11-04T08:58:46.151Z,19.17
2022-11-04T09:01:14.261Z,10.00
2022-11-04T09:03:42.273Z,13.07
2022-11-04T09:06:12.327Z,21.73
2022-11-04T09:08:39.877Z,14.30
2022-11-04T09:11:09.577Z,13.23
2022-11-04T09:13:39.809Z,19.65
2022-11-04T09:16:09.491Z,13.48
2022-11-04T09:18:37.168Z,14.75
2022-11-04T09:21:06.404Z,20.25
2022-11-04T09:23:38.817Z,21.88
2022-11-04T09:26:13.074Z,16.60
2022-11-04T09:28:41.484Z,14.18
2022-11-04T09:31:13.501Z,11.10
2022-11-04T09:33:40.816Z,12.65
2022-11-04T09:36:09.249Z,10.80
2022-11-04T09:38:41.195Z,9.52
2022-11-04T09:41:46.128Z,17.48
2022-11-04T09:44:16.156Z,10.15
2022-11-04T09:46:44.641Z,11.05
2022-11-04T09:49:13.732Z,16.75
2022-11-04T09:51:57.959Z,14.65
2022-11-04T09:54:45.870Z,14.93
2022-11-04T09:57:18.345Z,18.73
2022-11-04T09:59:47.104Z,10.93
2022-11-04T10:02:29.153Z,16.67
2022-11-04T10:05:05.465Z,14.32
2022-11-04T10:07:51.419Z,16.92
2022-11-04T10:10:50.446Z,9.15
2022-11-04T10:13:51.149Z,12.57
2022-11-04T10:16:42.966Z,15.57
2022-11-04T10:22:29.274Z,12.35
2022-11-04T10:25:03.849Z,12.75
2022-11-04T10:27:35.490Z,16.05
2022-11-04T10:30:15.842Z,19.92
2022-11-04T10:33:01.945Z,20.80
2022-11-04T10:35:40.845Z,15.70
2022-11-04T10:38:16.183Z,16.70
2022-11-04T10:40:48.198Z,18.38
2022-11-04T10:43:26.051Z,15.63
2022-11-04T10:46:01.443Z,9.02
2022-11-04T10:48:43.894Z,14.25
2022-11-04T10:51:10.946Z,11.57
2022-11-04T10:53:38.085Z,10.90
2022-11-04T10:56:21.888Z,14.00
2022-11-04T10:58:49.163Z,11.60
2022-11-04T11:01:49.704Z,10.40
2022-11-04T11:04:31.939Z,12.48
2022-11-04T11:07:00.782Z,12.32
2022-11-04T11:09:34.410Z,12.55
2022-11-04T11:12:49.553Z,11.18
2022-11-04T11:15:30.933Z,11.05
2022-11-04T11:18:11.110Z,13.52
2022-11-04T11:20:41.032Z,19.73
2022-11-04T11:23:35.351Z,17.33
2022-11-04T11:26:03.734Z,9.45
2022-11-04T11:28:38.379Z,22.20
2022-11-04T11:31:13.468Z,15.50
2022-11-04T11:33:55.006Z,36.10
2022-11-04T11:36:27.164Z,14.15
2022-11-04T11:39:05.994Z,13.40
2022-11-04T11:41:52.915Z,18.23
2022-11-04T11:44:37.175Z,19.88
2022-11-04T11:47:17.816Z,17.15
2022-11-04T11:49:45.282Z,13.93
2022-11-04T11:52:27.747Z,19.75
2022-11-04T11:55:03.674Z,9.95
2022-11-04T11:57:39.365Z,12.85
2022-11-04T12:03:14.434Z,9.48
2022-11-04T12:09:19.525Z,15.65
2022-11-04T12:11:49.506Z,17.05
2022-11-04T12:14:19.185Z,13.52
2022-11-04T12:17:13.911Z,12.07
2022-11-04T12:20:18.963Z,10.07
2022-11-04T12:22:45.953Z,16.13
2022-11-04T12:25:23.354Z,22.38
2022-11-04T12:28:06.211Z,24.13
2022-11-04T12:30:46.426Z,14.48
2022-11-04T12:33:28.280Z,20.83
2022-11-04T12:36:21.939Z,20.52
2022-11-04T12:38:57.359Z,12.68
2022-11-04T12:41:46.706Z,20.70
2022-11-04T12:44:45.285Z,13.73
2022-11-04T12:47:38.501Z,18.20
2022-11-04T12:50:43.534Z,18.67
2022-11-04T12:53:36.110Z,16.30
2022-11-04T12:56:14.841Z,26.20
2022-11-04T12:58:53.945Z,14.07
2022-11-04T13:01:30.353Z,19.75
2022-11-04T13:04:12.158Z,20.67
2022-11-04T13:07:16.250Z,18.08
2022-11-04T13:10:00.641Z,27.63
2022-11-04T13:12:35.495Z,23.30
2022-11-04T13:15:16.773Z,21.60
2022-11-04T13:17:45.929Z,18.63
2022-11-04T13:20:15.868Z,16.02
2022-11-04T13:22:47.259Z,22.75
2022-11-04T13:25:29.735Z,38.75
2022-11-04T13:27:58.336Z,30.10
2022-11-04T13:30:41.398Z,25.13
2022-11-04T13:33:37.684Z,19.08
2022-11-04T13:36:07.235Z,31.58
2022-11-04T13:38:42.294Z,13.88
2022-11-04T13:41:21.563Z,18.80
2022-11-04T13:43:59.299Z,17.77
2022-11-04T13:46:35.253Z,31.35
2022-11-04T13:49:11.657Z,19.40
2022-11-04T13:51:44.690Z,20.52
2022-11-04T13:54:31.953Z,18.48
2022-11-04T13:57:09.941Z,24.77
2022-11-04T13:59:37.132Z,43.30
2022-11-04T14:02:13.084Z,29.45
2022-11-04T14:04:42.598Z,31.10
2022-11-04T14:07:14.419Z,30.50
2022-11-04T14:09:44.744Z,33.25
2022-11-04T14:12:13.658Z,31.75
2022-11-04T14:14:50.988Z,37.05
2022-11-04T14:17:33.438Z,27.02
2022-11-04T14:20:11.780Z,36.20
2022-11-04T14:22:44.960Z,37.20
2022-11-04T14:25:44.427Z,35.47
2022-11-04T14:28:14.396Z,26.83
2022-11-04T14:30:44.581Z,27.77
2022-11-04T14:33:35.450Z,25.30
2022-11-04T14:36:20.951Z,32.50
2022-11-04T14:39:12.186Z,27.45
2022-11-04T14:42:02.731Z,25.40
2022-11-04T14:44:41.950Z,20.17
2022-11-04T14:47:31.282Z,29.98
2022-11-04T14:49:58.352Z,28.40
2022-11-04T14:52:33.547Z,33.63
2022-11-04T14:55:33.445Z,25.52
2022-11-04T14:58:21.919Z,25.58
2022-11-04T15:00:49.343Z,20.20
2022-11-04T15:06:07.458Z,35.70
2022-11-04T15:08:52.149Z,21.92
2022-11-04T15:11:42.489Z,23.70
2022-11-04T15:14:20.609Z,37.35
2022-11-04T15:16:54.333Z,41.97
2022-11-04T15:19:35.581Z,33.92
2022-11-04T15:22:05.307Z,60.88
2022-11-04T15:24:33.206Z,51.53
2022-11-04T15:27:05.111Z,40.25
2022-11-04T15:29:32.784Z,50.05
2022-11-04T15:32:05.688Z,47.97
2022-11-04T15:34:35.645Z,69.75
2022-11-04T15:37:05.680Z,72.10
2022-11-04T15:39:39.487Z,51.33
2022-11-04T15:42:30.113Z,42.00
2022-11-04T15:44:57.418Z,44.13
2022-11-04T15:47:27.411Z,45.20
2022-11-04T15:50:06.161Z,36.00
2022-11-04T15:52:33.305Z,36.30
2022-11-04T15:55:02.971Z,37.20
2022-11-04T15:57:34.973Z,44.10
2022-11-04T16:00:19.847Z,47.00
2022-11-04T16:02:50.268Z,38.78
2022-11-04T16:05:22.740Z,39.33
2022-11-04T16:07:52.020Z,31.73
2022-11-04T16:10:31.698Z,40.08
2022-11-04T16:13:17.234Z,41.05
2022-11-04T16:15:51.966Z,37.58
2022-11-04T16:18:37.366Z,42.60
2022-11-04T16:21:26.088Z,39.88
2022-11-04T16:24:06.981Z,50.55
2022-11-04T16:26:40.362Z,42.30
2022-11-04T16:29:13.622Z,51.55
2022-11-04T16:31:40.681Z,57.60
2022-11-04T16:34:12.381Z,54.28
2022-11-04T16:36:39.785Z,54.75
2022-11-04T16:39:09.680Z,49.25
2022-11-04T16:41:40.688Z,48.55
2022-11-04T16:44:19.401Z,47.85
2022-11-04T16:46:46.448Z,37.22
2022-11-04T16:49:19.047Z,46.15
2022-11-04T16:51:50.844Z,42.45
2022-11-04T16:54:17.829Z,44.00
2022-11-04T16:56:45.576Z,40.42
2022-11-04T16:59:12.852Z,56.22
2022-11-04T17:01:40.088Z,45.58
2022-11-04T17:04:07.914Z,46.90
2022-11-04T17:06:35.542Z,43.33
2022-11-04T17:09:02.584Z,53.67
2022-11-04T17:11:32.557Z,52.65
2022-11-04T17:13:59.535Z,51.67
2022-11-04T17:16:26.371Z,55.50
2022-11-04T17:18:53.438Z,58.20
2022-11-04T17:21:20.993Z,52.03
2022-11-04T17:23:47.966Z,57.97
2022-11-04T17:26:15.293Z,60.13
2022-11-04T17:28:42.330Z,58.63
2022-11-04T17:31:17.173Z,58.33
2022-11-04T17:33:44.570Z,71.18
2022-11-04T17:36:20.687Z,49.80
2022-11-04T17:38:48.273Z,52.90
2022-11-04T17:41:33.638Z,49.58
2022-11-04T17:44:00.764Z,47.22
2022-11-04T17:46:35.771Z,52.55
2022-11-04T17:49:13.236Z,50.78
2022-11-04T17:51:46.123Z,44.75
2022-11-04T17:54:18.180Z,55.28
2022-11-04T17:56:45.117Z,45.47
2022-11-04T17:59:14.173Z,56.75
2022-11-04T18:01:43.106Z,58.22
2022-11-04T18:04:19.750Z,63.45
2022-11-04T18:06:46.853Z,60.28
2022-11-04T18:09:15.683Z,63.00
2022-11-04T18:12:02.106Z,69.93
2022-11-04T18:14:29.282Z,67.72
2022-11-04T18:16:56.257Z,61.75
2022-11-04T18:19:23.930Z,69.50
2022-11-04T18:21:51.458Z,60.97
2022-11-04T18:24:19.440Z,62.65
2022-11-04T18:26:46.767Z,51.95
2022-11-04T18:29:14.174Z,43.17
2022-11-04T18:31:48.611Z,48.60
2022-11-04T18:34:18.944Z,76.85
2022-11-04T18:36:47.639Z,79.47
2022-11-04T18:39:17.470Z,70.75
2022-11-04T18:41:45.829Z,63.75
2022-11-04T18:44:21.029Z,67.40
2022-11-04T18:46:49.026Z,59.22
2022-11-04T18:49:17.048Z,60.60
2022-11-04T18:51:44.413Z,66.70
2022-11-04T18:54:12.237Z,64.60
2022-11-04T18:56:39.429Z,72.97
2022-11-04T18:59:26.102Z,76.13
2022-11-04T19:01:53.850Z,71.57
2022-11-04T19:04:20.943Z,59.65
2022-11-04T19:06:47.875Z,60.15
2022-11-04T19:12:22.749Z,56.65
2022-11-04T19:14:50.075Z,48.50
2022-11-04T19:17:16.976Z,39.90
2022-11-04T19:19:43.993Z,40.92
2022-11-04T19:22:11.869Z,43.65
2022-11-04T19:24:39.706Z,36.67
2022-11-04T19:27:07.005Z,38.67
2022-11-04T19:29:34.011Z,44.25
2022-11-04T19:32:01.315Z,46.15
2022-11-04T19:34:28.283Z,59.10
2022-11-04T19:36:55.353Z,53.40
2022-11-04T19:39:22.374Z,48.80
2022-11-04T19:42:08.171Z,49.75
2022-11-04T19:44:35.180Z,43.72
2022-11-04T19:47:02.005Z,49.15
2022-11-04T19:49:31.672Z,51.30
2022-11-04T19:51:59.258Z,44.28
2022-11-04T19:54:27.152Z,54.05
2022-11-04T19:56:54.451Z,55.45
2022-11-04T19:59:21.425Z,56.88
2022-11-04T20:01:48.487Z,50.15
2022-11-04T20:04:15.650Z,39.28
2022-11-04T20:06:42.689Z,36.53
2022-11-04T20:09:11.078Z,37.58
2022-11-04T20:12:00.122Z,41.10
2022-11-04T20:14:28.305Z,40.15
2022-11-04T20:16:55.476Z,41.67
2022-11-04T20:19:23.590Z,55.15
2022-11-04T20:21:52.178Z,41.47
2022-11-04T20:24:19.291Z,61.63
2022-11-04T20:26:49.376Z,50.60
2022-11-04T20:29:17.049Z,44.72
2022-11-04T20:31:44.807Z,52.80
2022-11-04T20:34:14.253Z,49.95
2022-11-04T20:36:41.882Z,42.42
2022-11-04T20:39:20.445Z,48.45
2022-11-04T20:41:47.721Z,39.72
2022-11-04T20:44:16.055Z,45.97
2022-11-04T20:46:44.289Z,43.10
2022-11-04T20:49:12.222Z,38.67
2022-11-04T20:51:42.318Z,53.33
2022-11-04T20:54:11.335Z,52.78
2022-11-04T20:56:40.336Z,44.85
2022-11-04T20:59:08.012Z,53.50
2022-11-04T21:01:38.214Z,46.40
2022-11-04T21:04:18.979Z,46.63
2022-11-04T21:09:20.429Z,45.80
2022-11-04T21:11:48.392Z,37.72
2022-11-04T21:14:16.686Z,43.10
2022-11-04T21:16:44.252Z,50.33
2022-11-04T21:19:12.239Z,33.47
2022-11-04T21:21:41.516Z,35.83
2022-11-04T21:24:10.345Z,32.95
2022-11-04T21:26:37.248Z,34.35
2022-11-04T21:29:06.810Z,37.15
2022-11-04T21:31:38.964Z,39.97
2022-11-04T21:34:06.020Z,35.35
2022-11-04T21:36:33.828Z,41.72
2022-11-04T21:39:00.924Z,29.23
2022-11-04T21:41:33.456Z,30.27
2022-11-04T21:44:03.107Z,35.67
2022-11-04T21:46:31.826Z,31.90
2022-11-04T21:48:59.196Z,37.75
2022-11-04T21:51:31.501Z,33.75
2022-11-04T21:54:00.193Z,34.22
2022-11-04T21:56:29.649Z,32.90
2022-11-04T21:58:57.124Z,29.08
2022-11-04T22:01:26.788Z,32.22
2022-11-04T22:03:56.730Z,36.92
2022-11-04T22:06:25.729Z,35.60
2022-11-04T22:08:56.511Z,38.40
2022-11-04T22:11:29.335Z,41.45
2022-11-04T22:13:58.266Z,32.08
2022-11-04T22:16:27.579Z,39.72
2022-11-04T22:18:56.662Z,34.00
2022-11-04T22:21:25.396Z,29.15
2022-11-04T22:23:53.079Z,28.33
2022-11-04T22:26:24.264Z,32.92
2022-11-04T22:28:52.306Z,29.95
2022-11-04T22:31:21.923Z,35.20
2022-11-04T22:33:50.284Z,38.13
2022-11-04T22:36:17.505Z,37.60
2022-11-04T22:38:44.733Z,30.52
2022-11-04T22:41:17.362Z,34.47
2022-11-04T22:43:44.472Z,29.83
2022-11-04T22:46:31.837Z,32.30
2022-11-04T22:49:02.002Z,33.78
2022-11-04T22:51:33.825Z,27.45
2022-11-04T22:54:07.707Z,36.15
2022-11-04T22:56:35.778Z,33.97
2022-11-04T22:59:02.889Z,31.92
2022-11-04T23:01:31.710Z,37.38
2022-11-04T23:03:58.949Z,37.08
2022-11-04T23:06:26.007Z,37.88
2022-11-04T23:08:59.617Z,33.08
2022-11-04T23:11:46.364Z,34.85
2022-11-04T23:14:33.742Z,36.80
2022-11-04T23:17:19.401Z,38.22
2022-11-04T23:19:46.570Z,30.63
2022-11-04T23:22:31.893Z,31.45
2022-11-04T23:25:11.301Z,32.88
2022-11-04T23:28:03.632Z,30.98
2022-11-04T23:30:33.991Z,32.53
2022-11-04T23:33:03.168Z,32.08
2022-11-04T23:35:52.754Z,32.35
2022-11-04T23:38:20.202Z,27.98
2022-11-04T23:41:07.635Z,35.08
2022-11-04T23:43:35.737Z,35.15
2022-11-04T23:46:21.517Z,37.47
2022-11-04T23:49:06.751Z,39.35
2022-11-04T23:51:52.194Z,38.78
2022-11-04T23:54:38.326Z,37.13
2022-11-04T23:57:30.467Z,55.10
